Terminal Aerodrome Forecast
Issued by NWS

Home | Current Version | Previous Version | Text Only | Print | Product List | Glossary On
Versions: 1 2 3 4 5 6 7 8 9 10 11 12 13 14 15 16
070
FTUS43 KDLH 210529
TAFHYR
TAF
KHYR 210529Z 2106/2206 26009G19KT P6SM SCT030 BKN150
     FM210800 29014G27KT P6SM BKN030
     FM211700 32015G25KT P6SM BKN025
     FM212300 31007KT P6SM BKN030
     FM220200 30004KT P6SM SCT030=

USA.gov is the U.S. government's official web portal to all federal, state and local government web resources and services.